Time;durP1;ratioP1;P1;durP2;ratioP2;P2;SDS_P1;SDS_P2;PMS_P1;PMS_P2;Temp;Humidity;BMP_temperature;BMP_pressure;BME280_temperature;BME280_humidity;BME280_pressure;Samples;Min_cycle;Max_cycle;Signal;HPM_P1;HPM_P2
2023/11/20 00:01:25;;;;;;;18.90;14.07;;;8.20;99.90;;;;;;5013714;28;20114;-71
2023/11/20 00:03:50;;;;;;;19.80;14.60;;;8.10;99.90;;;;;;5014047;28;20037;-71
2023/11/20 00:06:17;;;;;;;23.03;14.80;;;8.10;99.90;;;;;;5013515;28;20097;-71
2023/11/20 00:08:42;;;;;;;18.47;14.63;;;8.00;99.90;;;;;;5013457;28;20030;-71
2023/11/20 00:11:08;;;;;;;22.43;15.27;;;8.00;99.90;;;;;;5013567;28;20022;-71
2023/11/20 00:13:34;;;;;;;27.27;15.07;;;8.00;99.90;;;;;;5013155;28;20041;-71
2023/11/20 00:15:59;;;;;;;22.97;14.73;;;8.00;99.90;;;;;;5013173;28;20034;-71
2023/11/20 00:18:25;;;;;;;19.53;14.43;;;8.00;99.90;;;;;;5013038;28;20029;-71
2023/11/20 00:20:51;;;;;;;18.13;14.33;;;8.00;99.90;;;;;;5013386;28;20095;-71
2023/11/20 00:23:16;;;;;;;23.00;14.77;;;7.90;99.90;;;;;;5013445;28;20013;-70
2023/11/20 00:25:42;;;;;;;22.13;15.53;;;7.90;99.90;;;;;;5012994;28;20064;-71
2023/11/20 00:28:08;;;;;;;26.23;15.50;;;7.90;99.90;;;;;;5010444;28;20587;-71
2023/11/20 00:30:34;;;;;;;22.63;13.93;;;7.90;99.90;;;;;;5010543;28;20026;-71
2023/11/20 00:33:00;;;;;;;23.37;14.33;;;7.90;99.90;;;;;;5012075;28;20051;-71
2023/11/20 00:35:26;;;;;;;23.10;15.53;;;7.90;99.90;;;;;;5013280;28;20041;-71
2023/11/20 00:37:51;;;;;;;22.63;14.60;;;7.80;99.90;;;;;;5012171;28;20498;-70
2023/11/20 00:40:18;;;;;;;23.43;15.43;;;7.80;99.90;;;;;;5012944;28;20038;-71
2023/11/20 00:42:44;;;;;;;22.40;15.10;;;7.80;99.90;;;;;;5012713;28;20014;-71
2023/11/20 00:45:10;;;;;;;26.73;16.23;;;7.80;99.90;;;;;;5012814;28;20022;-70
2023/11/20 00:47:36;;;;;;;21.87;14.80;;;7.80;99.90;;;;;;5012824;28;20018;-70
2023/11/20 00:50:02;;;;;;;29.47;16.13;;;7.80;99.90;;;;;;5012864;28;20053;-70
2023/11/20 00:52:30;;;;;;;24.63;16.03;;;7.80;99.90;;;;;;5012961;28;20022;-70
2023/11/20 00:54:56;;;;;;;20.97;14.97;;;7.80;99.90;;;;;;5012681;28;20212;-70
2023/11/20 00:57:22;;;;;;;23.50;15.67;;;7.80;99.90;;;;;;5012646;28;20033;-70
2023/11/20 00:59:49;;;;;;;23.67;16.27;;;7.80;99.90;;;;;;5012516;28;20486;-70
2023/11/20 01:02:15;;;;;;;27.20;18.23;;;7.80;99.90;;;;;;5011417;28;20029;-70
2023/11/20 01:04:41;;;;;;;28.40;16.90;;;7.80;99.90;;;;;;5012631;28;20018;-71
2023/11/20 01:07:07;;;;;;;27.47;18.27;;;7.70;99.90;;;;;;5012545;28;20095;-70
2023/11/20 01:09:32;;;;;;;29.73;17.70;;;7.70;99.90;;;;;;5012499;28;20053;-70
2023/11/20 01:11:58;;;;;;;26.67;18.10;;;7.70;99.90;;;;;;5012525;28;20105;-70
2023/11/20 01:14:24;;;;;;;31.10;17.90;;;7.70;99.90;;;;;;5012607;28;20076;-70
2023/11/20 01:16:50;;;;;;;30.30;17.50;;;7.70;99.90;;;;;;5012622;28;20069;-70
2023/11/20 01:19:16;;;;;;;29.10;17.77;;;7.70;99.90;;;;;;5012651;28;20072;-70
2023/11/20 01:21:44;;;;;;;29.77;17.30;;;7.70;99.90;;;;;;5012639;28;20033;-70
2023/11/20 01:24:09;;;;;;;25.77;17.43;;;7.70;99.90;;;;;;5012458;28;20073;-70
2023/11/20 01:26:37;;;;;;;26.43;18.10;;;7.70;99.90;;;;;;5012357;28;20053;-70
2023/11/20 01:29:03;;;;;;;28.67;18.77;;;7.70;99.90;;;;;;5012293;28;20030;-70
2023/11/20 01:31:30;;;;;;;30.23;19.67;;;7.60;99.90;;;;;;5012482;28;20022;-70
2023/11/20 01:33:56;;;;;;;29.33;18.40;;;7.60;99.90;;;;;;5012369;28;20085;-70
2023/11/20 01:36:21;;;;;;;31.70;19.57;;;7.60;99.90;;;;;;5011380;28;20124;-70
2023/11/20 01:38:50;;;;;;;28.43;17.43;;;7.60;99.90;;;;;;5010216;28;20057;-70
2023/11/20 01:41:17;;;;;;;28.10;17.70;;;7.60;99.90;;;;;;5009528;28;20034;-70
2023/11/20 01:43:42;;;;;;;26.73;18.70;;;7.50;99.90;;;;;;5009846;28;20030;-70
2023/11/20 01:46:12;;;;;;;27.37;18.03;;;7.60;99.90;;;;;;5012571;28;20052;-70
2023/11/20 01:48:38;;;;;;;30.27;18.73;;;7.60;99.90;;;;;;5013853;28;20026;-70
2023/11/20 01:51:05;;;;;;;26.70;17.43;;;7.50;99.90;;;;;;5016274;28;20026;-70
2023/11/20 01:53:32;;;;;;;22.97;16.10;;;7.50;99.90;;;;;;5016087;28;20029;-70
2023/11/20 01:55:58;;;;;;;27.10;16.13;;;7.50;99.90;;;;;;5015853;28;20088;-70
2023/11/20 01:58:25;;;;;;;25.93;15.60;;;7.50;99.90;;;;;;5014243;28;20513;-70
2023/11/20 02:00:51;;;;;;;26.70;16.50;;;7.50;99.90;;;;;;5013380;28;20046;-70
2023/11/20 02:03:19;;;;;;;25.10;17.53;;;7.50;99.90;;;;;;5013121;28;20474;-70
2023/11/20 02:05:46;;;;;;;23.07;16.00;;;7.50;99.90;;;;;;5015219;28;20058;-70
2023/11/20 02:08:13;;;;;;;31.47;17.43;;;7.50;99.90;;;;;;5015691;28;20113;-70
2023/11/20 02:10:40;;;;;;;26.47;17.47;;;7.50;99.90;;;;;;5015467;28;20029;-70
2023/11/20 02:13:06;;;;;;;26.67;17.53;;;7.50;99.90;;;;;;5015300;28;20541;-70
2023/11/20 02:15:32;;;;;;;30.23;16.13;;;7.50;99.90;;;;;;5014227;28;20061;-70
2023/11/20 02:17:58;;;;;;;25.83;16.17;;;7.40;99.90;;;;;;5015197;28;20052;-70
2023/11/20 02:20:24;;;;;;;29.90;17.37;;;7.40;99.90;;;;;;5015155;28;20105;-70
2023/11/20 02:22:50;;;;;;;25.90;16.87;;;7.40;99.90;;;;;;5015437;28;20104;-70
2023/11/20 02:25:20;;;;;;;28.23;16.97;;;7.40;99.90;;;;;;5015327;28;20041;-70
2023/11/20 02:27:52;;;;;;;27.10;17.57;;;7.30;99.90;;;;;;5015130;28;20057;-70
2023/11/20 02:30:18;;;;;;;27.13;16.73;;;7.30;99.90;;;;;;5015467;28;20117;-70
2023/11/20 02:32:44;;;;;;;27.23;17.23;;;7.30;99.90;;;;;;5014039;28;20057;-70
2023/11/20 02:35:17;;;;;;;26.87;16.73;;;7.30;99.90;;;;;;5015211;28;20041;-70
2023/11/20 02:37:43;;;;;;;26.20;16.95;;;7.30;99.90;;;;;;5015295;28;20421;-70
2023/11/20 02:40:10;;;;;;;23.47;16.23;;;7.20;99.90;;;;;;5015174;28;20030;-70
2023/11/20 02:42:36;;;;;;;28.33;17.23;;;7.20;99.90;;;;;;5015061;28;20025;-70
2023/11/20 02:45:03;;;;;;;24.33;16.33;;;7.20;99.90;;;;;;5014943;28;20034;-70
2023/11/20 02:47:28;;;;;;;28.03;16.47;;;7.20;99.90;;;;;;5015250;28;20087;-70
2023/11/20 02:49:54;;;;;;;24.57;16.47;;;7.20;99.90;;;;;;5015142;28;20109;-70
2023/11/20 02:52:20;;;;;;;23.80;16.13;;;7.20;99.90;;;;;;5014594;28;20034;-70
2023/11/20 02:54:46;;;;;;;25.33;16.00;;;7.10;99.90;;;;;;5014651;28;20038;-70
2023/11/20 02:57:12;;;;;;;22.13;16.50;;;7.10;99.90;;;;;;5013520;28;20026;-70
2023/11/20 02:59:38;;;;;;;21.60;16.20;;;7.10;99.90;;;;;;5014578;28;20026;-70
2023/11/20 03:02:05;;;;;;;23.87;16.97;;;7.10;99.90;;;;;;5014417;28;20080;-70
2023/11/20 03:04:31;;;;;;;33.00;16.43;;;7.10;99.90;;;;;;5014759;28;20052;-70
2023/11/20 03:06:57;;;;;;;24.67;15.97;;;7.10;99.90;;;;;;5014459;28;20097;-70
2023/11/20 03:09:22;;;;;;;21.80;16.57;;;7.10;99.90;;;;;;5014434;28;20026;-70
2023/11/20 03:11:48;;;;;;;22.43;16.53;;;7.10;99.90;;;;;;5014712;28;20089;-70
2023/11/20 03:14:14;;;;;;;23.10;16.27;;;7.10;99.90;;;;;;5014579;28;20121;-70
2023/11/20 03:16:40;;;;;;;22.60;15.17;;;7.10;99.90;;;;;;5014352;28;20398;-70
2023/11/20 03:19:06;;;;;;;23.03;16.37;;;7.10;99.90;;;;;;5014537;28;20022;-70
2023/11/20 03:21:36;;;;;;;30.17;16.33;;;7.10;99.90;;;;;;5014436;28;20101;-70
2023/11/20 03:24:03;;;;;;;27.17;16.90;;;7.10;99.90;;;;;;5014495;28;20425;-70
2023/11/20 03:26:29;;;;;;;27.03;16.47;;;7.10;99.90;;;;;;5014375;28;20533;-70
2023/11/20 03:28:55;;;;;;;22.50;16.13;;;7.00;99.90;;;;;;5014203;28;20061;-70
2023/11/20 03:31:20;;;;;;;25.27;16.23;;;7.00;99.90;;;;;;5014309;28;20437;-70
2023/11/20 03:33:46;;;;;;;21.27;15.07;;;7.00;99.90;;;;;;5014339;28;20022;-70
2023/11/20 03:36:13;;;;;;;22.57;15.40;;;7.00;99.90;;;;;;5014142;28;20095;-70
2023/11/20 03:38:39;;;;;;;26.63;14.97;;;7.00;99.90;;;;;;5013887;28;20022;-70
2023/11/20 03:41:05;;;;;;;21.97;15.70;;;7.00;99.90;;;;;;5014144;28;20106;-70
2023/11/20 03:43:31;;;;;;;24.40;15.00;;;7.00;99.90;;;;;;5013985;28;20509;-70
2023/11/20 03:45:57;;;;;;;26.93;17.00;;;7.00;99.90;;;;;;5014105;28;20025;-70
2023/11/20 03:48:23;;;;;;;20.63;15.80;;;7.00;99.90;;;;;;5012949;28;20381;-70
2023/11/20 03:50:48;;;;;;;24.87;16.57;;;7.00;99.90;;;;;;5013908;28;20025;-70
2023/11/20 03:53:14;;;;;;;25.57;16.10;;;7.00;99.90;;;;;;5014014;28;20472;-70
2023/11/20 03:55:40;;;;;;;25.83;16.27;;;7.00;99.90;;;;;;5013928;28;20375;-70
2023/11/20 03:58:06;;;;;;;23.23;16.90;;;7.00;99.90;;;;;;5013783;28;20064;-70
2023/11/20 04:00:32;;;;;;;27.57;16.00;;;7.00;99.90;;;;;;5013761;28;20566;-70
2023/11/20 04:03:01;;;;;;;27.17;17.57;;;7.00;99.90;;;;;;5013791;28;20093;-70
2023/11/20 04:05:27;;;;;;;25.37;17.03;;;7.00;99.90;;;;;;5013560;28;20117;-70
2023/11/20 04:07:52;;;;;;;24.53;16.63;;;7.00;99.90;;;;;;5013479;28;20100;-70
2023/11/20 04:10:18;;;;;;;23.97;16.93;;;7.00;99.90;;;;;;5013449;28;20057;-70
2023/11/20 04:12:47;;;;;;;24.40;16.73;;;7.00;99.90;;;;;;5012546;28;20073;-70
2023/11/20 04:15:13;;;;;;;25.43;17.53;;;6.90;99.90;;;;;;5013356;28;20061;-70
2023/11/20 04:17:39;;;;;;;24.80;16.53;;;6.90;99.90;;;;;;5013315;28;20076;-70
2023/11/20 04:20:06;;;;;;;23.17;16.60;;;6.90;99.90;;;;;;5013218;28;20497;-70
2023/11/20 04:22:33;;;;;;;25.43;16.27;;;6.90;99.90;;;;;;5013205;28;20030;-70
2023/11/20 04:25:00;;;;;;;25.57;17.33;;;6.90;99.90;;;;;;5013074;28;20026;-70
2023/11/20 04:27:26;;;;;;;21.87;16.03;;;6.90;99.90;;;;;;5013332;28;20053;-70
2023/11/20 04:29:51;;;;;;;21.80;15.73;;;6.90;99.90;;;;;;5013405;28;20041;-70
2023/11/20 04:32:17;;;;;;;25.63;16.20;;;6.90;99.90;;;;;;5013169;28;20456;-70
2023/11/20 04:34:44;;;;;;;23.80;16.30;;;6.90;99.90;;;;;;5011876;28;20030;-70
2023/11/20 04:37:10;;;;;;;21.60;15.60;;;6.90;99.90;;;;;;5013312;28;20018;-70
2023/11/20 04:39:35;;;;;;;23.30;15.33;;;6.90;99.90;;;;;;5013176;28;20037;-70
2023/11/20 04:42:01;;;;;;;24.50;16.70;;;6.90;99.90;;;;;;5013167;28;20021;-70
2023/11/20 04:44:27;;;;;;;27.03;16.53;;;6.90;99.90;;;;;;5013112;28;20029;-70
2023/11/20 04:46:53;;;;;;;24.13;15.73;;;6.90;99.90;;;;;;5012877;28;20022;-70
2023/11/20 04:49:19;;;;;;;27.80;16.87;;;6.90;99.90;;;;;;5012632;28;20022;-70
2023/11/20 04:51:45;;;;;;;24.73;16.73;;;6.90;99.90;;;;;;5012905;28;20478;-70
2023/11/20 04:54:11;;;;;;;27.57;16.40;;;6.80;99.90;;;;;;5012975;28;20033;-70
2023/11/20 04:56:37;;;;;;;26.80;17.10;;;6.90;99.90;;;;;;5012787;28;20052;-70
2023/11/20 04:59:04;;;;;;;27.13;16.37;;;6.90;99.90;;;;;;5012998;28;20030;-70
2023/11/20 05:01:32;;;;;;;28.87;16.37;;;6.90;99.90;;;;;;5012683;28;20080;-70
2023/11/20 05:03:59;;;;;;;25.37;16.07;;;6.90;99.90;;;;;;5012632;28;20485;-70
2023/11/20 05:06:25;;;;;;;25.10;15.73;;;6.80;99.90;;;;;;5012751;28;20026;-70
2023/11/20 05:08:51;;;;;;;27.47;16.80;;;6.80;99.90;;;;;;5012781;28;20033;-70
2023/11/20 05:11:17;;;;;;;24.73;16.17;;;6.80;99.90;;;;;;5012571;28;20022;-70
2023/11/20 05:13:43;;;;;;;27.23;15.53;;;6.80;99.90;;;;;;5012300;28;20081;-70
2023/11/20 05:16:09;;;;;;;25.17;16.80;;;6.80;99.90;;;;;;5012454;28;20068;-70
2023/11/20 05:18:35;;;;;;;29.93;17.53;;;6.80;99.90;;;;;;5012641;28;20026;-70
2023/11/20 05:21:01;;;;;;;26.77;16.90;;;6.80;99.90;;;;;;5012484;28;20026;-70
2023/11/20 05:23:27;;;;;;;29.47;16.17;;;6.80;99.90;;;;;;5013233;28;20025;-70
2023/11/20 05:25:54;;;;;;;25.47;16.63;;;6.90;99.90;;;;;;5016563;28;20497;-70
2023/11/20 05:28:20;;;;;;;25.23;17.77;;;6.80;99.90;;;;;;5016558;28;20018;-70
2023/11/20 05:30:46;;;;;;;30.10;16.47;;;6.80;99.90;;;;;;5016750;28;20022;-70
2023/11/20 05:33:12;;;;;;;22.07;16.03;;;6.80;99.90;;;;;;5016403;28;20018;-70
2023/11/20 05:35:38;;;;;;;29.10;17.17;;;6.80;99.90;;;;;;5016249;28;20049;-70
2023/11/20 05:38:05;;;;;;;31.27;17.57;;;6.80;99.90;;;;;;5016271;28;20482;-70
2023/11/20 05:40:31;;;;;;;29.83;17.20;;;6.80;99.90;;;;;;5016480;28;20029;-70
2023/11/20 05:42:57;;;;;;;32.27;16.83;;;6.80;99.90;;;;;;5014854;28;20022;-70
2023/11/20 05:45:23;;;;;;;36.57;17.70;;;6.80;99.90;;;;;;5016249;28;20048;-70
2023/11/20 05:47:49;;;;;;;33.40;16.53;;;6.80;99.90;;;;;;5015181;28;20084;-69
2023/11/20 05:50:15;;;;;;;38.63;16.67;;;6.80;99.90;;;;;;5016169;28;20071;-70
2023/11/20 05:52:41;;;;;;;34.53;17.00;;;6.80;99.90;;;;;;5015890;28;20409;-70
2023/11/20 05:55:07;;;;;;;37.57;16.93;;;6.80;99.90;;;;;;5015731;28;20549;-70
2023/11/20 05:57:34;;;;;;;34.03;16.83;;;6.80;99.90;;;;;;5016025;28;20059;-70
2023/11/20 06:00:00;;;;;;;33.07;17.23;;;6.80;99.90;;;;;;5016318;28;20028;-70
2023/11/20 06:02:26;;;;;;;33.00;17.07;;;6.80;99.90;;;;;;5015731;28;20037;-70
2023/11/20 06:04:52;;;;;;;25.40;16.33;;;6.80;99.90;;;;;;5015489;28;20018;-70
2023/11/20 06:07:17;;;;;;;31.23;16.57;;;6.80;99.90;;;;;;5015604;28;20125;-70
2023/11/20 06:09:43;;;;;;;37.33;16.13;;;6.80;99.90;;;;;;5014916;28;20132;-70
2023/11/20 06:12:09;;;;;;;25.70;16.13;;;6.80;99.90;;;;;;5014545;28;20498;-70
2023/11/20 06:14:34;;;;;;;25.40;15.67;;;6.80;99.90;;;;;;5015902;28;20109;-70
2023/11/20 06:17:00;;;;;;;26.03;16.20;;;6.80;99.90;;;;;;5015604;28;20053;-70
2023/11/20 06:19:27;;;;;;;30.90;16.60;;;6.80;99.90;;;;;;5015636;28;20029;-70
2023/11/20 06:21:54;;;;;;;26.30;15.93;;;6.80;99.90;;;;;;5014836;28;20037;-70
2023/11/20 06:24:21;;;;;;;27.60;16.47;;;6.80;99.90;;;;;;5015253;28;20113;-70
2023/11/20 06:26:47;;;;;;;25.20;15.60;;;6.80;99.90;;;;;;5014074;28;20033;-70
2023/11/20 06:29:13;;;;;;;29.50;16.10;;;6.80;99.90;;;;;;5015545;28;20421;-70
2023/11/20 06:31:39;;;;;;;22.30;16.30;;;6.80;99.90;;;;;;5015572;28;20026;-71
2023/11/20 06:34:05;;;;;;;24.47;16.90;;;6.80;99.90;;;;;;5015367;28;20504;-70
2023/11/20 06:36:31;;;;;;;23.40;16.73;;;6.80;99.90;;;;;;5014178;28;20037;-71
2023/11/20 06:39:00;;;;;;;24.73;17.10;;;6.80;99.90;;;;;;5015094;28;20021;-70
2023/11/20 06:41:28;;;;;;;25.13;17.83;;;6.80;99.90;;;;;;5015121;28;20084;-71
2023/11/20 06:43:54;;;;;;;35.40;18.20;;;6.80;99.90;;;;;;5015014;28;20028;-71
2023/11/20 06:46:23;;;;;;;30.30;19.00;;;6.80;99.90;;;;;;5013807;28;20030;-71
2023/11/20 06:48:49;;;;;;;31.63;18.33;;;6.80;99.90;;;;;;5015160;28;20498;-71
2023/11/20 06:51:16;;;;;;;27.73;18.47;;;6.80;99.90;;;;;;5015292;28;20029;-71
2023/11/20 06:53:45;;;;;;;32.67;17.27;;;6.80;99.90;;;;;;5013662;28;20478;-71
2023/11/20 06:56:21;;;;;;;34.50;18.37;;;6.80;99.90;;;;;;5014784;28;20033;-71
2023/11/20 06:58:47;;;;;;;32.73;18.07;;;6.90;99.90;;;;;;5014835;28;20018;-71
2023/11/20 07:01:13;;;;;;;35.90;18.80;;;6.90;99.90;;;;;;5015083;28;20022;-71
2023/11/20 07:03:42;;;;;;;31.30;19.47;;;6.90;99.90;;;;;;5014982;28;20425;-71
2023/11/20 07:06:14;;;;;;;30.80;19.70;;;6.90;99.90;;;;;;5014992;28;20445;-71
2023/11/20 07:08:41;;;;;;;29.73;19.95;;;6.90;99.90;;;;;;5013663;28;20026;-71
2023/11/20 07:11:07;;;;;;;33.60;19.73;;;6.90;99.90;;;;;;5014845;28;20101;-71
2023/11/20 07:13:33;;;;;;;25.70;18.07;;;6.90;99.90;;;;;;5014555;28;20080;-71
2023/11/20 07:16:00;;;;;;;26.80;17.40;;;7.00;99.90;;;;;;5014768;28;20437;-73
2023/11/20 07:18:26;;;;;;;33.57;19.47;;;7.00;99.90;;;;;;5014597;28;20026;-72
2023/11/20 07:20:52;;;;;;;32.93;17.67;;;7.00;99.90;;;;;;5014348;28;20029;-72
2023/11/20 07:23:17;;;;;;;31.37;19.33;;;7.00;99.90;;;;;;5014523;28;20042;-71
2023/11/20 07:25:43;;;;;;;25.03;18.60;;;7.00;99.90;;;;;;5014553;28;20021;-72
2023/11/20 07:28:09;;;;;;;24.33;17.47;;;7.10;99.90;;;;;;5014666;28;20044;-72
2023/11/20 07:30:35;;;;;;;23.90;17.30;;;7.10;99.90;;;;;;5014992;28;20429;-72
2023/11/20 07:33:04;;;;;;;29.07;17.63;;;7.10;99.90;;;;;;5014401;28;20029;-72
2023/11/20 07:35:29;;;;;;;31.53;18.80;;;7.10;99.90;;;;;;5014273;28;20072;-72
2023/11/20 07:37:55;;;;;;;30.80;19.87;;;7.10;99.90;;;;;;5014262;28;20065;-71
2023/11/20 07:40:21;;;;;;;35.07;19.87;;;7.10;99.90;;;;;;5014250;28;20109;-72
2023/11/20 07:42:47;;;;;;;29.10;17.60;;;7.20;99.90;;;;;;5014111;28;20026;-72
2023/11/20 07:45:15;;;;;;;27.50;18.73;;;7.20;99.90;;;;;;5014341;28;20418;-72
2023/11/20 07:47:41;;;;;;;29.27;17.83;;;7.20;99.90;;;;;;5013652;28;20088;-71
2023/11/20 07:50:10;;;;;;;33.80;18.67;;;7.20;99.90;;;;;;5012885;28;20029;-72
2023/11/20 07:52:37;;;;;;;31.27;19.60;;;7.30;99.90;;;;;;5013631;28;20026;-72
2023/11/20 07:55:03;;;;;;;35.97;20.63;;;7.30;99.90;;;;;;5013782;28;20038;-71
2023/11/20 07:57:29;;;;;;;37.63;19.80;;;7.30;99.90;;;;;;5010973;28;20030;-73
2023/11/20 07:59:55;;;;;;;38.60;21.27;;;7.30;99.90;;;;;;5011152;28;20033;-72
2023/11/20 08:02:21;;;;;;;30.73;18.50;;;7.40;99.90;;;;;;5011667;28;20053;-72
2023/11/20 08:04:48;;;;;;;29.73;19.30;;;7.40;99.90;;;;;;5013500;28;20026;-72
2023/11/20 08:07:14;;;;;;;32.87;18.43;;;7.40;99.90;;;;;;5013316;28;20014;-73
2023/11/20 08:09:40;;;;;;;33.37;18.77;;;7.50;99.90;;;;;;5013295;28;20056;-72
2023/11/20 08:12:06;;;;;;;29.17;18.00;;;7.50;99.90;;;;;;5013156;28;20482;-75
2023/11/20 08:14:33;;;;;;;31.10;19.03;;;7.50;99.90;;;;;;5013576;28;20026;-72
2023/11/20 08:16:59;;;;;;;30.07;16.80;;;7.60;99.90;;;;;;5013314;28;20034;-72
2023/11/20 08:19:25;;;;;;;34.77;18.67;;;7.60;99.90;;;;;;5013060;28;20033;-72
2023/11/20 08:21:51;;;;;;;39.07;18.40;;;7.60;99.90;;;;;;5013417;28;20026;-72
2023/11/20 08:24:18;;;;;;;38.77;17.60;;;7.70;99.90;;;;;;5013495;28;20065;-72
2023/11/20 08:26:46;;;;;;;41.27;18.07;;;7.70;99.90;;;;;;5013187;28;20532;-72
2023/11/20 08:29:16;;;;;;;32.60;18.80;;;7.70;99.90;;;;;;5009917;28;20033;-71
2023/11/20 08:31:45;;;;;;;35.67;18.70;;;7.70;99.90;;;;;;5009233;28;20037;-72
2023/11/20 08:34:11;;;;;;;28.10;17.70;;;7.70;99.90;;;;;;5012823;28;20121;-72
2023/11/20 08:36:37;;;;;;;35.70;17.93;;;7.80;99.90;;;;;;5013087;28;20120;-72
2023/11/20 08:39:05;;;;;;;28.00;16.50;;;7.80;99.90;;;;;;5013252;28;20033;-72
2023/11/20 08:41:31;;;;;;;31.57;16.87;;;7.80;99.90;;;;;;5013173;28;20030;-71
2023/11/20 08:43:59;;;;;;;35.07;17.33;;;7.80;99.90;;;;;;5012362;28;20053;-72
2023/11/20 08:46:25;;;;;;;32.87;17.13;;;7.90;99.90;;;;;;5012314;28;20075;-72
2023/11/20 08:48:51;;;;;;;24.93;15.47;;;7.90;99.90;;;;;;5012792;28;20088;-72
2023/11/20 08:51:17;;;;;;;34.53;15.73;;;8.00;99.90;;;;;;5013047;28;20026;-72
2023/11/20 08:53:43;;;;;;;21.80;13.73;;;8.00;99.90;;;;;;5013102;28;20026;-72
2023/11/20 08:56:10;;;;;;;24.87;13.53;;;8.00;99.90;;;;;;5012402;28;20128;-73
2023/11/20 08:58:36;;;;;;;22.73;13.13;;;8.10;99.90;;;;;;5010491;28;20375;-72
2023/11/20 09:01:02;;;;;;;22.27;12.37;;;8.20;99.90;;;;;;5010591;28;20140;-72
2023/11/20 09:03:28;;;;;;;20.93;12.00;;;8.20;99.90;;;;;;5011028;28;20022;-72
2023/11/20 09:05:54;;;;;;;19.53;13.77;;;8.30;99.90;;;;;;5011297;28;20022;-72
2023/11/20 09:08:20;;;;;;;19.57;12.67;;;8.40;99.90;;;;;;5013211;28;20117;-73
2023/11/20 09:10:45;;;;;;;22.33;13.83;;;8.40;99.90;;;;;;5012833;28;20065;-72
2023/11/20 09:13:11;;;;;;;26.70;13.20;;;8.50;99.90;;;;;;5011672;28;20096;-72
2023/11/20 09:15:38;;;;;;;17.40;12.33;;;8.60;99.90;;;;;;5012403;28;20037;-72
2023/11/20 09:18:04;;;;;;;20.00;12.80;;;8.70;99.90;;;;;;5011412;28;20497;-70
2023/11/20 09:20:31;;;;;;;26.73;12.60;;;8.70;99.90;;;;;;5010339;28;20045;-70
2023/11/20 09:22:56;;;;;;;23.60;13.23;;;8.80;99.90;;;;;;5010768;28;20114;-71
2023/11/20 09:25:23;;;;;;;22.97;12.43;;;8.90;99.90;;;;;;5010813;28;20112;-72
2023/11/20 09:27:49;;;;;;;27.30;14.73;;;8.90;99.90;;;;;;5011104;28;20018;-70
2023/11/20 09:30:16;;;;;;;29.17;15.50;;;9.00;99.90;;;;;;5011016;28;20038;-70
2023/11/20 09:32:42;;;;;;;31.27;18.77;;;9.10;99.90;;;;;;5011512;28;20053;-71
2023/11/20 09:35:11;;;;;;;25.60;16.20;;;9.20;99.90;;;;;;5011748;28;20065;-71
2023/11/20 09:37:37;;;;;;;29.63;13.10;;;9.20;99.90;;;;;;5010969;28;20033;-72
2023/11/20 09:40:04;;;;;;;19.60;11.33;;;9.30;99.90;;;;;;5011692;28;20034;-71
2023/11/20 09:42:31;;;;;;;15.63;9.70;;;9.40;99.90;;;;;;5012140;28;20033;-69
2023/11/20 09:45:00;;;;;;;13.30;9.30;;;9.50;99.90;;;;;;5017131;28;20018;-70
2023/11/20 09:47:30;;;;;;;17.07;9.37;;;9.60;99.90;;;;;;5018516;28;20385;-69
2023/11/20 09:49:58;;;;;;;15.77;8.77;;;9.60;99.90;;;;;;5019715;28;20025;-70
2023/11/20 09:52:24;;;;;;;17.57;8.67;;;9.70;99.90;;;;;;5019146;28;20026;-70
2023/11/20 09:54:56;;;;;;;13.33;8.73;;;9.70;99.90;;;;;;5019211;28;20442;-70
2023/11/20 09:57:26;;;;;;;14.20;8.80;;;9.80;99.90;;;;;;5012091;28;20026;-70
2023/11/20 09:59:52;;;;;;;13.00;8.70;;;9.80;99.90;;;;;;5012087;28;20413;-71
2023/11/20 10:02:20;;;;;;;18.17;9.40;;;9.80;99.90;;;;;;5012391;28;20102;-71
2023/11/20 10:04:53;;;;;;;10.87;7.80;;;9.80;99.90;;;;;;5012129;28;20026;-71
2023/11/20 10:07:26;;;;;;;19.63;7.87;;;9.90;99.90;;;;;;5011970;28;20037;-70
2023/11/20 10:09:53;;;;;;;13.98;8.02;;;9.90;99.90;;;;;;5012025;28;20053;-71
2023/11/20 10:12:20;;;;;;;16.00;7.73;;;9.90;99.90;;;;;;5027414;22;20057;-71
2023/11/20 10:14:46;;;;;;;13.60;7.13;;;9.90;99.90;;;;;;5034204;28;20036;-71
2023/11/20 10:17:14;;;;;;;12.47;7.67;;;9.90;99.90;;;;;;5033634;28;20037;-71
2023/11/20 10:19:39;;;;;;;12.67;7.97;;;9.90;99.90;;;;;;5034899;28;20061;-72
2023/11/20 10:22:05;;;;;;;13.60;8.17;;;9.90;99.90;;;;;;5035317;28;20151;-71
2023/11/20 10:24:31;;;;;;;11.57;7.10;;;9.90;99.90;;;;;;5035458;28;20040;-71
2023/11/20 10:26:57;;;;;;;16.03;8.40;;;9.90;99.90;;;;;;5034270;28;20126;-71
2023/11/20 10:29:23;;;;;;;19.47;8.20;;;9.90;99.90;;;;;;5035205;28;20103;-72
2023/11/20 10:31:57;;;;;;;13.03;8.07;;;10.00;99.90;;;;;;5035209;28;20057;-71
2023/11/20 10:34:23;;;;;;;11.73;8.13;;;10.00;99.90;;;;;;5035212;28;20504;-71
2023/11/20 10:37:08;;;;;;;14.43;7.57;;;10.00;99.90;;;;;;5034985;28;20037;-71
2023/11/20 10:39:38;;;;;;;15.40;7.27;;;10.00;99.90;;;;;;5035035;28;20049;-71
2023/11/20 10:42:04;;;;;;;11.23;7.47;;;10.00;99.90;;;;;;5034516;28;20030;-72
2023/11/20 10:44:35;;;;;;;11.77;7.37;;;10.10;99.90;;;;;;5034359;28;20108;-71
2023/11/20 10:47:03;;;;;;;10.87;7.67;;;10.10;99.90;;;;;;5034657;28;20033;-71
2023/11/20 10:49:33;;;;;;;13.13;8.10;;;10.10;99.90;;;;;;5034733;28;20420;-72
2023/11/20 10:52:03;;;;;;;13.73;8.73;;;10.10;99.90;;;;;;5034694;28;20492;-72
2023/11/20 10:54:43;;;;;;;13.23;7.67;;;10.10;99.90;;;;;;5034674;28;20026;-72
2023/11/20 10:57:10;;;;;;;19.83;8.07;;;10.20;99.90;;;;;;5034483;28;20112;-72
2023/11/20 10:59:36;;;;;;;10.20;7.47;;;10.20;99.90;;;;;;5034821;28;20493;-71
2023/11/20 11:02:08;;;;;;;12.17;8.63;;;10.20;99.90;;;;;;5034545;28;20474;-71
2023/11/20 11:04:37;;;;;;;13.23;7.65;;;10.20;99.90;;;;;;5034766;28;20022;-71
2023/11/20 11:07:05;;;;;;;16.20;8.23;;;10.20;99.90;;;;;;5034211;28;20017;-71
2023/11/20 11:09:31;;;;;;;13.27;8.03;;;10.30;99.90;;;;;;5034349;28;20469;-71
2023/11/20 11:11:58;;;;;;;14.13;8.17;;;10.30;99.90;;;;;;5033977;28;20014;-71
2023/11/20 11:14:24;;;;;;;13.70;8.10;;;10.30;99.90;;;;;;5033915;28;20033;-71
2023/11/20 11:17:03;;;;;;;11.47;7.70;;;10.40;99.90;;;;;;5032828;28;20507;-71
2023/11/20 11:19:35;;;;;;;12.80;7.70;;;10.40;99.90;;;;;;5032954;28;20087;-71
2023/11/20 11:22:02;;;;;;;13.23;8.18;;;10.40;99.90;;;;;;5033607;28;20037;-72
2023/11/20 11:24:32;;;;;;;22.10;9.30;;;10.50;99.90;;;;;;5033057;28;20036;-71
2023/11/20 11:27:19;;;;;;;16.87;7.67;;;10.50;99.90;;;;;;5029527;28;20087;-71
2023/11/20 11:29:49;;;;;;;13.47;7.40;;;10.50;99.90;;;;;;5027608;28;20384;-71
2023/11/20 11:32:36;;;;;;;12.90;7.67;;;10.50;99.90;;;;;;5032217;28;20081;-71
2023/11/20 11:35:27;;;;;;;11.93;7.83;;;10.50;99.90;;;;;;5015819;28;20049;-71
2023/11/20 11:38:02;;;;;;;14.97;8.00;;;10.50;99.90;;;;;;5033396;28;20030;-71
2023/11/20 11:41:05;;;;;;;14.95;7.55;;;10.60;99.90;;;;;;5033866;28;20079;-71
2023/11/20 11:43:43;;;;;;;22.38;8.05;;;10.60;99.90;;;;;;5033832;28;20030;-71
2023/11/20 11:46:09;;;;;;;15.90;7.75;;;10.60;99.90;;;;;;5034033;28;20537;-70
2023/11/20 11:48:36;;;;;;;1999.90;239.40;;;10.70;99.90;;;;;;5033748;28;20104;-72
2023/11/20 11:51:17;;;;;;;1350.07;210.15;;;10.70;99.90;;;;;;5033816;28;20017;-72
2023/11/20 11:54:15;;;;;;;21.50;12.20;;;10.80;99.90;;;;;;5033661;28;20048;-71
2023/11/20 11:57:07;;;;;;;19.83;10.77;;;10.90;99.90;;;;;;5033471;28;20393;-71
2023/11/20 11:59:37;;;;;;;19.20;10.60;;;10.90;99.90;;;;;;5032003;28;20046;-72
2023/11/20 12:02:04;;;;;;;16.52;8.95;;;10.90;99.90;;;;;;5033325;28;20468;-71
2023/11/20 12:05:03;;;;;;;604.80;46.00;;;11.00;99.90;;;;;;5031802;28;20021;-71
2023/11/20 12:07:35;;;;;;;134.75;22.42;;;11.00;99.90;;;;;;5021401;28;20034;-71
2023/11/20 12:10:03;;;;;;;22.77;11.77;;;11.10;99.90;;;;;;5033372;28;20025;-71
2023/11/20 12:13:06;;;;;;;14.93;8.23;;;11.10;99.90;;;;;;5033177;28;20048;-71
2023/11/20 12:15:44;;;;;;;20.55;12.30;;;11.10;99.90;;;;;;5033186;28;20035;-69
2023/11/20 12:18:19;;;;;;;39.40;15.05;;;11.10;99.90;;;;;;5033346;28;20075;-71
2023/11/20 12:20:54;;;;;;;16.55;9.80;;;11.10;99.90;;;;;;5032079;28;20477;-72
2023/11/20 12:23:40;;;;;;;17.95;10.85;;;11.10;99.90;;;;;;5030184;28;20033;-70
2023/11/20 12:26:09;;;;;;;384.10;47.45;;;11.10;99.90;;;;;;5024830;28;20026;-72
2023/11/20 12:28:36;;;;;;;27.33;15.48;;;11.10;99.90;;;;;;5032256;28;20108;-71
2023/11/20 12:31:04;;;;;;;166.65;27.83;;;11.10;99.90;;;;;;5031708;28;20136;-72
2023/11/20 12:33:33;;;;;;;95.93;30.55;;;11.10;99.90;;;;;;5031924;28;20049;-72
2023/11/20 12:36:00;;;;;;;148.70;34.40;;;11.10;99.90;;;;;;5032756;28;20051;-72
2023/11/20 12:38:33;;;;;;;30.83;15.60;;;11.10;99.90;;;;;;5032879;28;20022;-72